Coleford, United Kingdom
Current Conditions -  °F | °C
As of 6:50 PM on Saturday 20 Dec 2014 (Local Time) from EGBJ Reporting Station
Few Clouds Few Clouds  
Wind Chill: 41°   Ceiling: Unl
Heat Index: 41°   Visibility: 6mi
Dew Point: 37°   Wind: 3mph
Humidity: 87%   Direction: 250°WSW
Pressure: 30.42"   Gusts: NA
Location:  51.8°N, 2.6°W
Report Text: EGBJ 201850Z 25003KT 9999 FEW045 05/03 Q1030
Loading
Personal Weather Stations






























Interactive Weather Map New forecast layout! Learn more

10-Day Weather Forecast

Advertisements
Track Severe Weather on mobile